Flight Track Log - Related Links

Times and Time Zones

All times are in EDT time to prevent confusion due to time zone crossing. See the EJA846 flight status page for this flight to view local times or setup timezone preferences in your user account.

Time Position Orientation Groundspeed Altitude Reporting Facility
EDT Latitude Longitude Course Direction KTS MPH feet Rate Location/Type
Tue 01:42:45 PM 32.1203 -81.0969 180° South 254 292 6,500  Level Jacksonville Center
Tue 01:43:45 PM 32.0575 -81.0736 163° South 262 302 9,600 1,750 Climbing Jacksonville Center
Tue 01:44:45 PM 31.9803 -81.0825 186° South 300 345 10,000 1,800 Climbing Jacksonville Center
Tue 01:45:45 PM 31.8928 -81.0967 188° South 310 357 13,200 3,150 Climbing Jacksonville Center
Tue 01:46:45 PM 31.7969 -81.1081 186° South 322 371 16,300 2,700 Climbing Jacksonville Center
Tue 01:47:00 PM 31.5378 -80.7597 180° South  Level Estimated
Tue 01:47:45 PM 31.7117 -81.1219 188° South 332 382 18,600  Level Jacksonville Center
Tue 01:48:00 PM 31.4393 -80.6865 180° South  Level Estimated
Tue 01:48:45 PM 31.6011 -81.1364 186° South 355 409 20,800  Level Jacksonville Center
Tue 01:49:45 PM 31.5031 -81.1503 187° South 388 447 22,200 1,800 Climbing Jacksonville Center
Tue 01:50:45 PM 31.3781 -81.1672 187° South 413 475 24,400 2,050 Climbing Jacksonville Center
Tue 01:51:45 PM 31.2633 -81.1742 183° South 413 475 26,300 2,000 Climbing Jacksonville Center
Tue 01:52:45 PM 31.1528 -81.1714 179° South 408 470 28,400 1,950 Climbing Jacksonville Center
Tue 01:53:45 PM 31.0378 -81.1664 178° South 413 475 30,200 1,850 Climbing Jacksonville Center
Tue 01:54:45 PM 30.9228 -81.1611 178° South 413 475 32,100 1,850 Climbing Jacksonville Center
Tue 01:55:45 PM 30.8081 -81.1583 179° South 413 475 33,900 1,800 Climbing Jacksonville Center
Tue 01:56:45 PM 30.6972 -81.1556 179° South 413 475 35,700 1,800 Climbing Jacksonville Center
Tue 01:57:45 PM 30.5886 -81.1503 178° South 401 461 37,500 1,700 Climbing Jacksonville Center
Tue 01:58:45 PM 30.4842 -81.1497 180° South 396 456 39,100 1,200 Climbing Jacksonville Center
Tue 01:59:45 PM 30.3756 -81.1444 178° South 389 448 39,900 450 Climbing Jacksonville Center
Tue 02:00:45 PM 30.2650 -81.1417 179° South 387 445 40,000 50 Climbing Jacksonville Center
Tue 02:01:45 PM 30.1458 -81.1392 179° South 412 474 40,000  Level Jacksonville Center
Tue 02:02:45 PM 30.0228 -81.1367 179° South 431 496 40,000  Level Jacksonville Center
Tue 02:03:45 PM 29.8975 -81.1339 179° South 443 510 40,000  Level Jacksonville Center
Tue 02:04:45 PM 29.7719 -81.1292 178° South 448 516 40,000  Level Jacksonville Center
Tue 02:06:40 PM 29.5431 -81.1178 178° South 457 526 40,000  Level Miami Center
Tue 02:07:39 PM 29.4139 -81.1222 182° South 457 526 40,000  Level Miami Center
Tue 02:08:40 PM 29.2869 -81.1078 174° South 463 533 40,000  Level Miami Center
Tue 02:09:39 PM 29.1636 -81.0531 159° South 463 533 40,000  Level Miami Center
Tue 02:10:39 PM 29.0644 -80.9497 138° Southeast 457 526 40,000  Level Miami Center
Tue 02:11:40 PM 28.9717 -80.8322 132° Southeast 475 547 40,000  Level Miami Center
Tue 02:12:39 PM 28.8669 -80.7006 132° Southeast 497 572 40,000  Level Miami Center
Tue 02:13:40 PM 28.7739 -80.5886 133° Southeast 492 566 40,000  Level Miami Center
Tue 02:14:40 PM 28.6808 -80.4767 133° Southeast 487 560 40,000  Level Miami Center
Tue 02:15:40 PM 28.5978 -80.3769 133° Southeast 487 560 40,000  Level Miami Center
Tue 02:16:40 PM 28.5044 -80.2653 134° Southeast 487 560 40,000  Level Miami Center
Tue 02:17:40 PM 28.4028 -80.1442 134° Southeast 482 555 40,000  Level Miami Center
Tue 02:18:40 PM 28.3094 -80.0331 134° Southeast 487 560 40,000  Level Miami Center
Tue 02:19:40 PM 28.2158 -79.9219 134° Southeast 487 560 40,000  Level Miami Center
Tue 02:20:39 PM 28.1322 -79.8281 135° Southeast 486 559 40,000  Level Miami Center
Tue 02:21:40 PM 28.0406 -79.7197 134° Southeast 481 554 40,000  Level Miami Center
Tue 02:22:40 PM 27.9467 -79.6117 135° Southeast 481 554 40,000  Level Miami Center
Tue 02:23:40 PM 27.8506 -79.4964 133° Southeast 476 548 40,000  Level Miami Center
Tue 02:24:40 PM 27.7606 -79.3911 134° Southeast 471 542 40,000  Level Miami Center
Tue 02:25:40 PM 27.6786 -79.2978 135° Southeast 471 542 40,000  Level Miami Center
Tue 02:26:39 PM 27.5886 -79.1906 133° Southeast 466 536 40,000  Level Miami Center
Tue 02:27:40 PM 27.4881 -79.0761 135° Southeast 461 531 40,000 -50 Level Miami Center
Tue 02:28:40 PM 27.3956 -78.9714 135° Southeast 461 531 39,900 -450 Descending Miami Center
Tue 02:29:40 PM 27.3031 -78.8644 134° Southeast 461 531 39,100 -450 Descending Miami Center
Tue 02:30:40 PM 27.2189 -78.7672 134° Southeast 466 536 39,000 -50 Descending Miami Center
Tue 02:31:40 PM 27.1219 -78.6606 136° Southeast 474 545 39,000  Level Miami Center
Tue 02:32:40 PM 27.0336 -78.5519 132° Southeast 474 545 39,000  Level Miami Center
Tue 02:33:40 PM 26.9325 -78.4456 137° Southeast 480 552 39,000  Level Miami Center
Tue 02:34:40 PM 26.8394 -78.3442 136° Southeast 478 550 39,000 -200 Level Miami Center
Tue 02:35:40 PM 26.7467 -78.2314 133° Southeast 478 550 38,600 -1,250 Descending Miami Center
Tue 02:36:40 PM 26.6536 -78.1281 135° Southeast 478 550 36,500 -2,050 Descending Miami Center
Tue 02:37:40 PM 26.5625 -78.0225 134° Southeast 478 550 34,500 -2,017 Descending Miami Center
Tue 02:38:39 PM 26.4714 -77.9219 135° Southeast 466 536 32,500 -2,017 Descending Miami Center
Tue 02:39:39 PM 26.3864 -77.8189 133° Southeast 454 522 30,500 -2,000 Descending Miami Center
Tue 02:40:39 PM 26.2928 -77.7208 137° Southeast 454 522 28,500 -1,983 Descending Miami Center
Tue 02:41:40 PM 26.2017 -77.6183 135° Southeast 459 528 26,500 -1,983 Descending Miami Center
Tue 02:42:40 PM 26.1058 -77.5089 134° Southeast 459 528 24,500 -1,966 Descending Miami Center
Tue 02:43:39 PM 26.0269 -77.4231 136° Southeast 454 522 22,600 -1,950 Descending Miami Center
Tue 02:44:40 PM 25.9436 -77.3303 135° Southeast 435 501 20,600 -1,983 Descending Miami Center
Tue 02:45:40 PM 25.8603 -77.2353 134° Southeast 429 494 18,600 -1,950 Descending Miami Center
Tue 02:46:40 PM 25.7831 -77.1542 137° Southeast 406 467 16,700 -2,050 Descending Miami Center
Tue 02:47:40 PM 25.7122 -77.0733 134° Southeast 381 438 14,500 -2,250 Descending Miami Center
Tue 02:48:40 PM 25.6392 -76.9947 136° Southeast 369 425 12,200 -2,250 Descending Miami Center
Tue 02:49:40 PM 25.5767 -76.9256 135° Southeast 344 396 10,000 -1,950 Descending Miami Center
Tue 02:50:40 PM 25.5181 -76.8633 136° Southeast 316 364 8,300 -1,700 Descending Miami Center
Tue 02:51:40 PM 25.4617 -76.7989 134° Southeast 301 346 6,600 -1,700 Descending Miami Center

Login

Don't have an account? Register now (free) for customized features, flight alerts, and more!